createdAt,value
2023-08-26T00:09:42.281Z,17.2
2023-08-26T00:19:43.327Z,17.3
2023-08-26T00:29:43.789Z,17.2
2023-08-26T00:39:44.224Z,17.2
2023-08-26T00:49:44.696Z,17.2
2023-08-26T00:59:44.998Z,17
2023-08-26T01:09:45.652Z,17
2023-08-26T01:19:46.156Z,17
2023-08-26T01:29:46.364Z,17
2023-08-26T01:49:46.690Z,17.1
2023-08-26T01:59:47.266Z,17.1
2023-08-26T02:19:48.122Z,17.1
2023-08-26T02:29:49.133Z,17.2
2023-08-26T02:39:50.226Z,17.2
2023-08-26T02:49:51.188Z,17.2
2023-08-26T02:59:52.235Z,17
2023-08-26T03:09:52.854Z,16.7
2023-08-26T03:19:53.008Z,15.9
2023-08-26T03:49:54.592Z,14.7
2023-08-26T03:59:54.752Z,14.6
2023-08-26T04:19:55.504Z,14.2
2023-08-26T04:29:55.995Z,14
2023-08-26T04:39:56.927Z,13.8
2023-08-26T04:49:57.128Z,13.6
2023-08-26T04:59:57.765Z,13.6
2023-08-26T05:19:59.517Z,13.6
2023-08-26T05:30:00.282Z,13.6
2023-08-26T05:40:01.256Z,13.8
2023-08-26T05:50:01.810Z,14.3
2023-08-26T06:00:02.346Z,14.9
2023-08-26T06:10:02.883Z,15.3
2023-08-26T06:30:04.598Z,16.2
2023-08-26T06:40:05.072Z,16.5
2023-08-26T06:50:05.670Z,16.6
2023-08-26T07:10:06.812Z,17.3
2023-08-26T07:30:10.160Z,17.3
2023-08-26T07:40:09.273Z,17.1
2023-08-26T07:50:09.716Z,17.6
2023-08-26T08:00:10.462Z,17.9
2023-08-26T08:10:10.255Z,17.4
2023-08-26T08:20:10.879Z,17
2023-08-26T08:40:11.833Z,18.2
2023-08-26T08:50:11.919Z,19.1
2023-08-26T09:00:12.630Z,19.7
2023-08-26T09:10:13.266Z,20.2
2023-08-26T09:30:14.303Z,20.2
2023-08-26T09:40:15.179Z,19.9
2023-08-26T09:50:15.599Z,19.9
2023-08-26T10:00:16.246Z,20.4
2023-08-26T10:10:16.859Z,20.1
2023-08-26T10:20:17.806Z,20.8
2023-08-26T10:40:18.829Z,20.3
2023-08-26T11:10:20.965Z,21.4
2023-08-26T11:40:22.857Z,22
2023-08-26T11:50:23.307Z,22
2023-08-26T12:10:24.478Z,21
2023-08-26T12:30:25.064Z,23
2023-08-26T12:40:26.048Z,21.7
2023-08-26T13:00:27.215Z,23.5
2023-08-26T13:20:28.910Z,23
2023-08-26T13:30:29.690Z,22.3
2023-08-26T13:40:30.130Z,22.5
2023-08-26T13:50:30.348Z,22
2023-08-26T14:10:31.042Z,21.8
2023-08-26T14:20:31.984Z,21.7
2023-08-26T14:30:32.903Z,22.8
2023-08-26T14:40:33.737Z,21.7
2023-08-26T14:50:34.299Z,22.3
2023-08-26T15:50:38.289Z,23.4
2023-08-26T16:00:38.531Z,23.3
2023-08-26T16:20:39.234Z,23
2023-08-26T16:30:40.273Z,22.7
2023-08-26T16:40:40.482Z,22.7
2023-08-26T16:50:41.269Z,22.5
2023-08-26T17:00:41.629Z,22.2
2023-08-26T17:20:42.883Z,21.7
2023-08-26T17:30:43.999Z,21
2023-08-26T17:50:45.529Z,20.3
2023-08-26T18:00:46.634Z,20
2023-08-26T18:10:46.755Z,19.4
2023-08-26T18:20:47.697Z,18.9
2023-08-26T18:50:50.165Z,17.6
2023-08-26T19:00:50.429Z,17.6
2023-08-26T19:40:51.961Z,17
2023-08-26T19:50:52.366Z,16.7
2023-08-26T20:00:53.271Z,16.5
2023-08-26T20:10:53.787Z,16.3
2023-08-26T20:20:54.219Z,16
2023-08-26T20:30:55.007Z,15.7
2023-08-26T20:40:55.233Z,15.5
2023-08-26T20:50:56.316Z,15.5
2023-08-26T21:00:57.178Z,15.6
2023-08-26T21:10:58.132Z,15.6
2023-08-26T21:20:58.836Z,15.2
2023-08-26T21:41:00.217Z,14.9
2023-08-26T21:51:01.048Z,14.7
2023-08-26T22:31:03.604Z,14.4
2023-08-26T22:41:04.230Z,14.2
2023-08-26T22:51:04.823Z,14.2
2023-08-26T23:11:05.907Z,14.2
2023-08-26T23:21:06.631Z,14.2
2023-08-26T23:31:07.434Z,14.2
2023-08-26T23:41:07.884Z,14.1
2023-08-26T23:51:08.267Z,14.1
